ZYTX/SHE METAR and TAF weather

Enter ICAO airport designator
Station Type Date Time Source
ZYTX METAR 2020/09/20 12:00 UTC NOAA

ZYTX 201200Z 26001MPS CAVOK 12/10 Q1018 NOSIG


Station Type Date Time Source
ZYTX Decoded METAR 2020/09/20 12:00 UTC NOAA

Shenyang / Taokian, China (ZYTX) 41-48N 123-24E
Sep 20, 2020 - 08:00 AM EDT / 2020.09.20 1200 UTC
Wind: from the W (260 degrees) at 2 MPH (2 KT):0
Visibility: greater than 7 mile(s):0
Temperature: 53 F (12 C)
Dew Point: 50 F (10 C)
Relative Humidity: 87%
Pressure (altimeter): 30.06 in. Hg (1018 hPa)
ob: ZYTX 201200Z 26001MPS CAVOK 12/10 Q1018 NOSIG
cycle: 12

Station Type Date Time Source
ZYTX TAF 2020/09/20 12:03 UTC NOAA

TAF ZYTX 200903Z 2012/2112 36003MPS 6000 NSC TX22/2106Z TN08/2021Z

Example: see airport list